Terminal Aerodrome Forecast
Issued by NWS

Home | Current Version | Previous Version | Text Only | Print | Product List | Glossary On
Versions: 1 2 3 4 5 6 7 8 9 10 11
318
FTUS44 KBMX 082352
TAFEET
TAF
KEET 082352Z 0900/0924 30013G21KT P6SM BKN080 OVC090
     FM090100 29006G14KT P6SM OVC050
     FM091500 30011G17KT P6SM OVC050=

USA.gov is the U.S. government's official web portal to all federal, state and local government web resources and services.